Northern & Central Napa County

33 Stations

15 Minute Data | America/Los_Angeles
as of 8/31/26 9:50 PM PDT
Station Date Time Temp (°F) RH (%) Dew Pt (°F) Wind Spd (mph) Wind Dir (°) Wind Gust (mph) Latest Rain (In) Daily Rain (In) Daily Max Temp (°F) Daily Min Temp (°F)
Tenma (North Calistoga) 8/31/26 2145 58.8   2.4 - - - - - 0.00 0.00 80.0   11.9 52.7   7.2
Calistoga-Solari 8/31/26 2145 59.0   5.6 81   11 53.3   1.4 1.8   2.0 WNW | 301 4.9   2.2 0.00 0.00 76.5   12.0 56.2   12.1
Calistoga-North 8/31/26 2145 59.7   3.0 82   7 54.3   0.6 - - - 0.00 0.00 79.7   12.8 56.9   10.8
Twomey Calistoga 8/31/26 2145 55.6   5.8 83   5 50.4   3.8 0.5   1.6 SSE | 153 1.2   3.7 0.00 0.00 82.0   11.2 55.6   14.8
Paloma 8/31/26 2145 59.4   4.8 80   8 53.1   1.7 3.8   0.1 ESE | 108 9.1   1.7 0.00 0.00 81.3   10.1 56.7   14.2
Calistoga (Ranch 78) 8/31/26 2145 57.2   6.1 78   7 50.5   3.5 0.1   2.7 SSW | 204 1.3   5.0 0.00 0.00 78.9   11.1 56.4   12.8
Diamond Mtn (Schramsberg) 8/31/26 2145 56.4   4.7 84   11 51.8   0.8 - - - 0.00 0.00 76.2   8.0 53.0   0.9
Diamond Mtn (McEachran) 8/31/26 2145 58.8   3.0 82   5 53.2   1.1 - - - - - 79.6   6.2 55.5   3.8
Deer Park 8/31/26 2145 58.1   3.5 82   6 52.6   1.3 2.1   2.4 WSW | 254 4.7   2.7 0.00 0.00 78.6   6.5 54.5   1.7
St. Helena-North 8/31/26 2145 60.0   2.8 73   2 51.2   2.0 0.5   2.8 WNW | 294 4.4   1.5 0.00 0.00 79.7   6.4 56.9   8.6
St. Helena (NVV Office) 8/31/26 2145 60.8   2.3 - - 2.1   1.2 WNW | 294 7.6   4.7 0.00 0.00 80.9   3.6 57.4   8.3
Tiara Fria (East St. Helena) 8/31/26 2145 60.4   2.1 76   1 53.0   2.5 3.1   0.9 NW | 305 7.7   3.6 0.00 0.00 79.3   3.9 57.2   10.4
Prisoner Winery 8/31/26 2145 58.0   1.0 81   5 52.2   2.7 1.1   1.1 NE | 47 3.3   2.4 0.00 0.00 81.4   5.7 55.9   10.7
Rutherford Hill Estate 8/31/26 2145 57.8   2.6 81   1 52.1   2.2 1.3   1.2 NNW | 332 4.6   3.1 0.00 0.00 80.2   4.0 55.6   4.4
Rutherford-North (Mee Ln) 8/31/26 2145 58.9   1.4 79   2 52.5   2.0 1.5   0.2 SW | 227 5.3   1.1 0.00 0.00 79.7   2.7 54.0   11.2
Rutherford (STS) 8/31/26 2145 55.0   5.1 89   2 51.9   4.4 1.6   0.8 ENE | 58 2.8   0.1 0.00 0.00 81.2   3.0 55.0   11.9
Silver Oak OV 8/31/26 2145 60.9   0.6 76   6 53.3   2.6 3.6   1.0 WSW | 240 8.5   1.6 0.00 0.00 77.2   2.8 56.2   12.7
Oakville-NE (Ranch 88) 8/31/26 2145 57.3   4.0 77   1 50.0   4.1 0.1   2.2 E | 87 3.1   3.7 0.00 0.00 79.2   3.2 56.9   13.6
Crossroads Ranch 8/31/26 2145 61.1   0.6 76   4 53.4   2.1 3.2   1.3 WSW | 250 6.6   3.4 0.00 0.00 77.5   3.2 56.4   11.7
Oakville 8/31/26 2145 61.0   0.1 75   7 53.0   2.4 5.9   3.1 WSW | 247 14.5   8.3 0.00 0.00 77.2   2.0 56.2   12.2
To Kalon Remote (TKKE) 8/31/26 2145 61.3   1.2 - - - - - - - 80.4   2.9 57.2   12.2
To Kalon 8/31/26 2145 60.9   0.5 78   5 54.2   2.3 4.1   0.3 W | 275 11.2   2.0 0.00 0.00 78.9   1.7 56.7   10.8
To Kalon Remote (TKN5) 8/31/26 2145 61.6   0.4 - - - - - - - 80.1   3.8 57.2   11.6
Jump Rock 8/31/26 2130 54.2   1.2 90   13 51.4   3.1 0.8   0.2 SSE | 168 2.1   0.2 0.00 0.00 72.7   10.5 43.9   3.1
State Lane Ranch 8/31/26 2145 58.6   3.3 84   1 53.8   2.9 1.0   4.1 E | 93 2.8   7.3 0.00 0.00 76.4   4.7 56.3   13.7
Yountville (Ranch 67) 8/31/26 2145 61.0   0.9 72   10 51.7   2.6 2.3   4.0 SSW | 210 6.2   4.3 0.00 0.00 75.2   2.6 55.0   11.6
Borreo (Soda Canyon) 8/31/26 2145 54.3   3.9 86   1 50.2   3.6 1.0   0.1 NNW | 338 3.0   1.4 0.00 0.00 73.3   5.0 53.1   6.9
Wappo Hill Floor 8/31/26 2145 59.4   1.1 77   6 52.2   3.2 0.8   2.5 SE | 136 2.1   4.7 0.00 0.00 76.3   3.3 55.8   12.4
Wappo Hill 8/31/26 2145 60.5   0.2 74   9 52.4   3.1 1.3   5.8 ESE | 122 2.8   8.1 0.00 0.00 75.9   2.3 55.3   5.6
Stags Leap Dist (Chimney Rock) 8/31/26 2145 58.8   2.5 82   2 53.4   3.1 1.3   1.9 E | 79 3.4   3.4 0.00 0.00 75.7   3.0 55.9   13.1
Stags Leap Dist (Silverado Vineyards) 8/31/26 2145 59.6   0.9 75   6 51.9   3.0 0.5   4.8 N | 351 1.7   7.8 0.00 0.00 75.6   3.1 55.2   11.7
Yountville-SE (Ranch 85) 8/31/26 2145 58.5   2.3 80   4 52.5   3.7 0.0   3.3 N | 0 0.0   6.9 0.00 0.00 75.6   2.1 55.5   10.3
Yountville-South (Ranch 87) 8/31/26 2145 57.7   3.2 82   3 52.2   4.1 0.5   1.4 NNE | 23 1.5   2.6 0.00 0.00 77.3   4.3 55.7   11.3
Max     61.6 90 54.3 5.9 - 14.5 0.00 0.00 82.0 57.4
Avg     58.8 80 52.3 1.7 - 4.7 0.00 - - -
Min     54.2 72 50.0 0.0 - 0.0 0.00 0.00 72.7 43.9